KBNW/BNW METAR and TAF weather

Enter ICAO airport designator
Station Type Date Time Source
KBNW METAR 2019/07/20 04:55 UTC NOAA

KBNW 200455Z AUTO 20006KT 10SM CLR 28/27 A2976 RMK AO2


Station Type Date Time Source
KBNW Decoded METAR 2019/07/20 04:55 UTC NOAA

Boone Municipal, IA, United States (KBNW) 42-03N 093-51W
Jul 20, 2019 - 12:55 AM EDT / 2019.07.20 0455 UTC
Wind: from the SSW (200 degrees) at 7 MPH (6 KT):0
Visibility: 10 mile(s):0
Sky conditions: clear
Temperature: 82 F (28 C)
Dew Point: 80 F (27 C)
Relative Humidity: 94%
Pressure (altimeter): 29.76 in. Hg (1007 hPa)
ob: KBNW 200455Z AUTO 20006KT 10SM CLR 28/27 A2976 RMK AO2
cycle: 5

Station Type Date Time Source
KBNW TAF UTC NOAA

Error!

Example: see airport list